Date,TemperatureHighF,TemperatureAvgF,TemperatureLowF,DewpointHighF,DewpointAvgF,DewpointLowF,HumidityHigh,HumidityAvg,HumidityLow,PressureMaxIn,PressureMinIn,WindSpeedMaxMPH,WindSpeedAvgMPH,GustSpeedMaxMPH,PrecipitationSumIn
2013-1-1,51,47,43,50,42,28,98,82,52,30.03,29.87,2,0,6,0.19
2013-1-2,50,46,41,49,43,37,98,90,74,30.11,29.84,4,0,11,0.42
2013-1-3,45,41,32,38,36,30,93,83,62,30.17,30.04,1,0,5,0.01
2013-1-4,52,38,28,30,26,21,95,64,31,30.23,30.11,5,0,16,0.01
2013-1-5,51,39,28,31,25,21,80,59,33,30.31,30.19,2,0,7,0.01
2013-1-6,49,42,35,41,36,30,94,79,67,30.19,29.98,2,0,6,0.00
2013-1-7,52,39,30,34,31,29,96,76,43,30.35,30.09,5,0,13,0.01
2013-1-8,57,43,31,42,35,28,93,75,49,30.37,30.28,1,0,6,0.01
2013-1-9,67,51,37,52,44,35,96,80,51,30.36,30.28,4,0,7,0.00
2013-1-10,64,54,46,49,45,36,97,75,52,30.45,30.33,4,0,12,0.00
2013-1-11,53,49,42,52,44,31,99,85,50,30.37,30.07,2,0,10,0.36
2013-1-12,72,57,50,62,55,50,99,93,69,30.09,30.03,2,0,7,0.01
2013-1-13,75,61,51,62,56,51,99,86,57,30.07,29.98,3,0,12,0.00
2013-1-14,73,64,54,63,59,53,98,85,68,30.09,30.01,3,0,7,0.00
2013-1-15,63,49,46,60,47,45,99,94,86,30.14,29.97,5,1,12,0.02
2013-1-16,50,48,45,50,48,44,99,99,98,29.97,29.90,4,0,7,0.22
2013-1-17,52,48,35,52,47,33,99,97,92,30.03,29.79,7,1,26,0.95
2013-1-18,47,37,29,34,29,22,97,76,39,30.45,30.03,4,0,14,0.63
2013-1-19,54,38,26,33,28,24,94,72,33,30.42,30.08,4,0,11,0.01
2013-1-20,65,47,36,36,34,31,86,64,31,30.08,29.90,4,0,11,0.01
2013-1-21,60,44,30,34,29,21,94,59,28,30.00,29.79,5,0,12,0.00
2013-1-22,41,35,27,23,9,-1,61,36,17,30.19,29.87,7,1,15,0.00
2013-1-23,41,30,19,18,10,1,79,46,26,30.29,29.98,4,0,15,0.00
2013-1-24,39,32,25,27,15,2,84,52,23,30.41,29.87,7,2,24,0.00
2013-1-25,27,24,20,25,14,3,92,68,38,30.43,30.02,2,0,7,0.03
2013-1-26,40,31,24,34,28,22,97,90,63,30.30,30.00,3,0,6,0.11
2013-1-27,40,32,27,30,27,25,97,83,58,30.50,30.30,2,0,9,0.08
2013-1-28,52,42,32,47,36,28,90,78,66,30.43,30.15,1,0,7,0.01
2013-1-29,74,58,45,57,50,43,98,78,51,30.16,30.00,5,0,12,0.01
2013-1-30,72,66,57,64,61,54,97,84,70,30.01,29.45,15,4,34,0.04
2013-1-31,52,45,33,27,23,17,77,44,28,29.94,29.71,9,2,22,0.00
2013-2-1,42,36,26,28,15,1,79,44,21,30.29,29.82,11,2,23,0.02
2013-2-2,44,33,20,37,14,7,84,49,25,30.31,29.97,5,1,16,0.01
2013-2-3,50,42,33,36,30,24,90,66,39,29.96,29.78,5,0,17,0.02
2013-2-4,49,37,26,27,24,19,88,62,33,30.06,29.91,3,0,9,0.00
2013-2-5,63,46,33,38,33,26,86,64,35,29.94,29.79,4,0,13,0.00
2013-2-6,64,47,32,38,29,20,94,58,19,30.19,29.89,5,0,14,0.00
2013-2-7,49,43,38,44,38,33,96,82,64,30.22,29.87,6,1,16,0.32
2013-2-8,55,46,41,45,40,28,96,81,54,29.97,29.69,7,2,20,0.87
2013-2-9,54,41,30,29,24,16,84,55,23,30.27,29.97,4,0,13,0.01
2013-2-10,53,40,27,40,24,19,85,56,26,30.40,30.14,5,0,11,0.02
2013-2-11,63,57,45,60,54,40,98,90,79,30.14,29.85,5,1,15,0.09
2013-2-12,62,54,47,52,37,25,95,58,25,30.01,29.83,4,0,12,0.02
2013-2-13,49,46,44,47,44,37,97,92,65,29.89,29.55,1,0,10,0.14
2013-2-14,51,42,32,37,33,29,96,72,47,29.98,29.75,4,0,10,0.01
2013-2-15,62,44,30,39,32,28,98,69,28,30.00,29.85,4,0,10,0.01
2013-2-16,46,37,31,36,32,27,95,83,63,29.87,29.73,5,0,13,0.31
2013-2-17,39,31,24,25,14,7,79,52,27,30.18,29.82,10,2,24,0.07
2013-2-18,51,35,19,25,18,14,90,56,24,30.32,30.18,3,0,11,0.02
2013-2-19,53,42,31,50,38,23,94,83,65,30.20,29.78,5,1,21,0.09
2013-2-20,54,42,30,39,22,14,95,49,21,30.04,29.87,3,0,13,0.01
2013-2-21,56,41,26,25,19,14,80,43,19,30.16,30.03,2,0,11,0.00
2013-2-22,44,36,33,36,32,22,96,85,41,30.26,30.06,2,0,9,0.51
2013-2-23,44,40,37,43,39,36,97,96,95,30.04,29.73,3,0,10,0.68
2013-2-24,63,50,40,46,39,30,98,72,33,29.95,29.71,7,0,12,0.03
2013-2-25,43,39,34,33,25,21,75,57,44,30.14,29.95,7,1,15,0.03
2013-2-26,59,46,37,59,43,26,99,88,63,30.04,29.47,6,1,15,1.06
2013-2-27,60,49,39,45,40,36,97,76,45,29.71,29.54,3,0,13,0.01
2013-2-28,50,42,35,39,31,25,96,68,39,29.76,29.62,4,0,15,0.01
2013-3-1,50,40,29,31,28,25,88,63,41,29.83,29.75,4,0,13,0.01
2013-3-2,50,39,28,31,26,20,91,61,39,29.83,29.72,6,1,13,0.00
2013-3-3,47,36,27,22,19,17,76,51,34,29.89,29.76,5,1,14,0.00
2013-3-4,51,36,24,23,17,13,77,50,22,30.02,29.89,6,1,16,0.00
2013-3-5,50,42,31,45,35,23,96,79,48,29.99,29.50,3,0,12,0.30
2013-3-6,48,44,39,47,32,25,98,67,45,29.93,29.42,12,3,31,0.18
2013-3-7,53,43,33,31,28,25,79,58,41,30.14,29.93,5,1,17,0.01
2013-3-8,56,44,31,28,24,21,78,49,27,30.19,30.05,7,1,18,0.00
2013-3-9,63,47,33,32,28,24,74,50,23,30.24,30.15,5,0,10,0.00
2013-3-10,67,49,33,33,27,18,89,50,17,30.24,30.14,5,0,12,0.00
2013-3-11,69,54,37,53,43,29,87,68,48,30.17,29.87,10,2,17,0.00
2013-3-12,74,62,53,61,54,32,96,76,44,29.87,29.67,7,1,18,0.34
2013-3-13,59,48,36,33,26,19,83,45,26,30.03,29.86,7,1,17,0.00
2013-3-14,53,41,30,26,19,16,68,43,25,30.15,30.02,6,1,16,0.00
2013-3-15,63,46,27,35,27,17,85,53,28,30.09,29.83,4,0,14,0.00
2013-3-16,79,63,46,48,42,34,67,49,29,29.83,29.60,4,0,19,0.00
2013-3-17,63,53,44,53,44,37,92,73,46,30.08,29.76,7,1,17,0.00
2013-3-18,46,42,39,43,40,37,95,92,81,30.09,29.84,4,0,14,0.18
2013-3-19,68,52,42,47,35,17,98,64,19,29.92,29.73,4,1,18,0.23
2013-3-20,57,48,36,28,15,8,70,29,18,30.04,29.71,4,0,11,0.01
2013-3-21,47,41,33,30,19,10,73,45,25,29.88,29.64,7,2,19,0.00
2013-3-22,53,38,24,26,15,10,70,41,21,29.99,29.88,4,0,13,0.00
2013-3-23,54,45,38,31,25,18,75,48,29,29.96,29.83,1,0,6,0.00
2013-3-24,43,39,35,39,35,30,94,86,61,29.85,29.47,6,1,18,0.51
2013-3-25,49,41,36,37,31,22,95,70,37,29.73,29.47,9,1,26,0.03
2013-3-26,49,42,33,29,26,24,73,53,42,30.02,29.73,5,1,15,0.00
2013-3-27,53,42,33,28,24,18,75,50,28,30.14,30.02,9,1,19,0.00
2013-3-28,58,44,30,28,24,21,76,48,25,30.20,30.06,8,1,18,0.00
2013-3-29,61,45,30,32,26,21,85,52,23,30.24,30.10,6,1,14,0.00
2013-3-30,65,52,40,44,38,32,80,60,36,30.15,30.01,4,0,9,0.00
2013-3-31,69,57,48,56,49,-100,97,79,59,30.03,29.73,4,1,15,0.30
2013-4-1,74,62,54,55,47,36,98,65,26,29.85,29.73,6,1,18,0.12
2013-4-2,62,51,39,39,30,24,72,45,26,30.08,29.86,7,1,17,0.03
2013-4-3,62,51,43,36,22,16,71,34,20,30.21,30.03,5,1,16,0.00
2013-4-4,48,43,40,41,34,24,95,71,43,30.25,29.84,7,1,18,0.87
2013-4-5,63,48,40,47,42,39,96,82,51,29.93,29.78,4,1,13,0.48
2013-4-6,65,53,40,43,33,23,95,51,25,30.20,29.93,7,1,15,0.00
2013-4-7,73,55,37,47,39,33,90,57,29,30.20,30.04,6,1,13,0.00
2013-4-8,79,64,48,56,51,46,96,65,36,30.10,29.99,5,0,16,0.00
2013-4-9,85,70,54,60,55,52,97,64,35,30.12,30.00,5,0,15,0.00
2013-4-10,87,73,59,62,58,55,94,64,35,30.04,29.89,5,0,14,0.00
2013-4-11,83,72,61,67,60,56,94,69,44,29.93,29.74,4,1,17,0.00
2013-4-12,81,71,65,69,63,51,96,77,48,29.76,29.55,7,2,18,0.29
2013-4-13,76,64,52,51,41,37,75,46,25,29.93,29.69,4,0,11,0.06
2013-4-14,79,64,46,53,45,37,96,56,23,30.02,29.93,6,0,13,0.00
2013-4-15,70,66,60,58,55,50,90,70,58,30.13,29.94,4,0,14,0.01
2013-4-16,77,66,59,61,58,56,96,77,49,30.23,30.12,4,0,8,0.01
2013-4-17,60,59,59,57,57,56,92,91,89,30.17,30.16,0,0,0,0.00
2013-4-19,66,66,65,65,65,64,96,96,96,29.76,29.73,2,1,7,0.00
2013-4-20,65,56,47,64,42,31,96,62,29,30.19,29.76,3,0,14,0.10
2013-4-21,64,52,42,43,40,36,95,68,38,30.38,30.19,6,1,17,0.00
2013-4-22,62,50,38,46,39,33,85,67,42,30.38,30.15,6,1,16,0.00
2013-4-23,68,55,48,52,47,45,90,76,48,30.17,30.04,4,0,10,0.02
2013-4-24,78,62,46,57,51,45,98,72,44,30.07,29.91,7,1,16,0.01
2013-4-25,73,62,53,56,47,41,93,62,34,30.20,29.95,3,0,13,0.00
2013-4-26,74,61,52,53,43,31,93,58,22,30.34,30.20,7,0,13,0.00
2013-4-27,74,62,52,51,46,38,81,57,30,30.30,30.19,4,0,10,0.00
2013-4-28,63,59,55,57,50,-100,96,75,60,30.21,30.02,2,0,7,0.53
2013-4-29,72,63,56,65,60,55,99,91,70,30.03,29.89,0,0,7,1.42
2013-4-30,67,62,56,61,59,54,98,89,71,30.09,29.92,7,0,10,0.01
2013-5-1,62,60,57,58,56,55,95,89,82,30.23,30.07,6,1,15,0.00
2013-5-2,66,60,55,57,55,53,94,86,74,30.23,30.17,7,1,14,0.00
2013-5-3,70,59,51,56,50,42,93,73,51,30.18,30.08,5,1,17,0.00
2013-5-4,67,57,50,52,48,43,86,74,54,30.12,29.98,6,2,16,0.00
2013-5-5,61,56,51,56,52,47,88,84,78,30.01,29.89,6,2,17,0.00
2013-5-6,72,61,56,65,59,54,97,92,73,29.92,29.75,4,1,15,0.96
2013-5-7,73,59,50,58,52,46,98,81,40,29.88,29.78,6,0,15,0.01
2013-5-8,74,62,52,59,55,50,97,80,51,29.93,29.85,4,0,11,0.05
2013-5-9,81,67,54,60,57,53,99,73,42,30.00,29.91,4,0,12,0.02
2013-5-10,87,70,56,62,56,-100,97,68,38,30.01,29.89,6,1,15,0.01
2013-5-11,85,74,67,65,62,58,83,66,45,29.91,29.73,5,1,17,0.00
2013-5-12,75,66,58,63,51,-100,95,61,37,29.95,29.73,6,0,15,0.03
2013-5-13,68,59,50,43,37,32,72,46,27,30.08,29.95,4,0,14,0.01
2013-5-14,72,58,42,45,39,32,92,54,25,30.17,30.01,5,0,15,0.00
2013-5-15,89,70,52,62,54,43,84,60,34,30.01,29.84,4,0,12,0.00
2013-5-16,87,67,61,62,39,-100,92,64,33,29.92,29.84,5,0,12,0.00
2013-5-17,88,74,64,64,54,-100,92,65,33,30.01,29.92,4,0,9,0.00
2013-5-18,82,71,63,70,64,55,95,79,42,30.09,30.01,4,0,9,0.15
2013-5-19,78,70,67,71,67,66,98,91,70,30.09,29.99,6,1,13,0.70
2013-5-20,77,71,67,71,68,66,99,92,77,30.05,29.97,8,1,11,0.77
2013-5-21,84,73,68,72,69,67,97,86,61,29.98,29.90,9,1,13,0.01
2013-5-22,85,74,67,69,67,64,96,79,53,29.98,29.86,5,1,18,0.01
2013-5-23,82,72,68,71,68,66,96,88,59,29.90,29.77,5,0,11,0.23
2013-5-24,74,66,54,68,54,38,98,70,34,30.11,29.75,6,1,23,0.03
2013-5-25,75,59,43,52,42,35,92,59,26,30.20,30.07,5,0,14,0.00
2013-5-26,75,62,52,53,46,37,89,59,35,30.20,30.11,2,0,11,0.00
2013-5-27,81,66,50,56,51,44,97,63,29,30.20,30.10,5,1,12,0.00
2013-5-28,84,72,60,66,62,56,93,70,50,30.19,30.09,6,1,14,0.00
2013-5-29,85,72,61,65,62,59,97,74,47,30.18,30.12,6,1,17,0.00
2013-6-3,81,73,66,72,68,64,97,87,73,29.88,29.78,5,1,13,0.28
2013-6-4,82,72,64,68,64,61,99,79,53,30.03,29.86,4,0,18,0.28
2013-6-5,83,73,64,64,60,56,92,66,42,30.07,29.95,3,0,10,0.00
2013-6-6,77,71,67,73,67,57,98,86,60,29.98,29.78,3,0,13,1.15
2013-6-7,77,71,69,75,70,69,99,97,89,29.80,29.39,5,0,17,2.95
2013-6-8,84,74,68,72,70,67,99,86,59,30.03,29.76,4,0,9,0.18
2013-6-9,87,76,67,73,70,66,99,82,54,30.10,30.00,5,0,10,0.15
2013-6-10,83,75,71,76,72,70,98,91,71,30.04,29.85,5,2,15,1.37
2013-6-11,86,76,70,70,67,64,94,76,50,29.90,29.84,7,1,16,0.75
2013-6-12,91,78,65,75,68,63,96,74,50,29.92,29.81,3,0,10,0.00
2013-6-13,96,81,69,76,71,65,94,75,37,29.81,29.55,8,0,31,0.09
2013-6-16,87,82,73,68,66,61,77,59,49,30.07,29.95,5,1,13,0.00
2013-6-17,87,77,70,72,67,62,87,72,51,29.98,29.87,5,0,12,0.00
2013-6-18,85,75,69,72,70,67,97,84,63,29.92,29.70,6,1,17,1.60
2013-6-19,81,73,66,69,66,63,98,81,59,30.04,29.79,4,0,11,1.60
2013-6-20,83,72,64,66,63,57,96,76,47,30.17,30.04,5,0,11,0.00
2013-6-22,79,75,70,72,69,68,93,82,74,30.12,30.05,4,0,10,0.05
2013-6-23,85,75,69,74,70,68,97,87,66,30.15,30.07,2,0,9,0.22
2013-6-24,82,74,70,76,72,69,99,92,72,30.15,30.04,4,0,11,0.37
2013-6-25,88,74,69,76,70,68,97,88,62,30.07,29.96,5,0,10,0.05
2013-6-26,89,75,69,75,70,65,98,86,60,29.98,29.85,5,0,20,0.26
2013-6-27,89,74,67,76,70,66,99,90,62,29.90,29.67,6,1,10,0.11
2013-6-28,91,78,71,74,72,69,97,83,50,29.70,29.53,3,0,19,0.60
2013-6-29,86,79,70,74,72,69,99,80,64,29.67,29.60,6,1,14,0.94
2013-6-30,86,77,72,74,72,68,97,86,67,29.81,29.66,8,1,16,0.26
2013-7-1,82,75,70,76,72,69,98,92,73,29.93,29.78,6,1,16,1.36
2013-7-2,78,73,71,74,72,69,98,96,86,30.13,29.93,6,1,13,0.54
2013-7-3,85,78,74,76,73,71,98,87,72,30.19,30.10,7,1,16,0.02
2013-7-4,89,81,73,75,72,68,97,76,50,30.22,30.13,7,2,17,0.01
2013-7-5,90,78,72,75,72,70,98,85,55,30.22,30.10,5,1,14,0.01
2013-7-6,88,78,73,74,72,69,98,83,60,30.19,30.07,6,1,11,0.00
2013-7-7,90,79,69,74,71,67,98,78,56,30.13,30.01,7,1,14,0.00
2013-7-8,83,75,72,78,70,-100,96,88,75,30.11,30.04,6,0,15,0.33
2013-7-9,86,75,72,77,73,71,99,93,73,30.10,30.01,3,0,13,0.34
2013-7-10,85,75,73,78,71,-100,98,91,72,30.05,29.89,2,0,13,0.31
2013-7-11,84,75,72,74,72,71,98,92,70,29.92,29.83,3,0,9,0.39
2013-7-12,77,73,71,73,72,70,99,96,84,29.93,29.81,1,0,10,0.23
2013-7-13,78,74,71,76,72,70,98,96,91,30.10,29.94,2,0,11,0.34
2013-7-14,87,77,70,77,73,69,99,89,61,30.23,30.10,6,0,14,0.76
2013-7-15,90,78,70,76,72,69,99,85,54,30.25,30.18,2,0,5,0.56
2013-7-16,94,79,70,75,72,69,99,81,48,30.21,30.11,1,0,11,0.11
2013-7-17,92,81,74,77,74,71,98,82,52,30.15,30.04,3,0,8,0.11
2013-7-18,93,81,76,78,75,73,96,83,53,30.09,29.98,2,0,6,0.01
2013-7-19,90,82,74,76,74,69,97,78,55,30.04,29.93,4,0,13,0.01
2013-7-20,90,81,75,75,71,-100,90,75,59,29.98,29.87,6,1,12,0.00
2013-7-21,89,78,72,76,72,70,98,83,63,29.94,29.84,5,0,12,1.34
2013-7-22,88,76,72,76,73,71,99,91,66,29.90,29.77,3,0,9,0.01
2013-7-23,89,80,74,76,73,71,94,80,56,29.80,29.67,3,0,11,0.01
2013-7-24,93,82,71,74,71,67,97,73,44,29.79,29.67,3,0,7,0.61
2013-7-25,80,74,69,71,70,67,98,88,70,29.96,29.75,2,0,9,0.74
2013-7-26,86,73,64,69,65,60,98,79,46,30.04,29.95,0,0,1,0.01
2013-7-27,87,76,68,73,69,66,98,82,54,30.00,29.88,3,0,11,0.45
2013-7-28,87,77,70,75,71,67,99,84,53,29.93,29.86,2,0,9,0.03
2013-7-29,88,77,71,72,70,66,96,80,53,30.09,29.93,0,0,1,0.02
2013-7-30,88,76,65,71,67,63,94,76,45,30.15,30.07,2,0,6,0.00
2013-7-31,83,77,72,74,71,69,96,83,69,30.09,29.95,2,0,9,0.33
2013-8-1,84,75,71,74,71,69,99,89,67,29.96,29.81,0,0,5,0.36
2013-8-2,90,78,70,74,71,68,98,81,52,29.96,29.84,1,0,9,0.01
2013-8-3,90,80,72,76,73,70,97,82,52,29.96,29.84,6,0,13,0.88
2013-8-4,84,76,68,74,69,64,99,82,54,29.96,29.82,4,0,12,0.88
2013-8-5,85,74,64,69,65,59,97,76,47,30.03,29.94,1,0,10,0.01
2013-8-6,83,74,68,69,66,64,96,78,57,30.01,29.94,3,0,11,0.13
2013-8-7,86,76,69,71,69,67,94,78,54,30.04,29.96,5,0,13,0.05
2013-8-8,90,78,70,74,71,68,97,80,53,30.01,29.93,3,0,7,0.00
2013-8-9,92,80,73,76,74,72,97,82,55,30.00,29.93,4,0,10,0.00
2013-8-10,93,81,73,78,74,72,97,82,55,30.04,29.94,4,0,24,0.27
2013-8-11,93,80,71,77,73,71,99,82,54,30.05,29.94,1,0,4,0.27
2013-8-12,93,80,74,75,73,69,97,81,46,29.98,29.88,2,0,7,0.00
2013-8-13,91,78,73,79,72,-100,98,85,60,29.89,29.71,3,0,12,0.81
2013-8-14,76,70,64,73,64,-100,98,85,75,30.01,29.76,3,0,7,0.02
2013-8-15,77,60,61,61,40,-100,90,71,54,30.09,30.01,0,0,2,0.00
2013-8-16,71,64,60,64,56,-100,95,84,65,30.10,30.02,0,0,4,0.01
2013-8-17,73,68,65,72,67,61,98,94,86,30.09,30.03,2,0,10,0.40
2013-8-18,84,73,70,72,67,-100,99,84,62,30.14,30.05,1,0,7,0.01
2013-8-19,73,65,68,71,51,-100,98,93,87,30.12,30.03,0,0,7,0.47
2013-8-20,83,74,70,74,69,-100,99,89,67,30.12,30.04,0,0,1,0.01
2013-8-21,87,75,70,76,72,69,99,91,68,30.16,30.05,2,0,13,0.05
2013-8-22,89,78,69,75,72,69,99,82,55,30.09,29.93,4,0,12,0.05
2013-8-23,88,77,69,75,71,68,98,82,55,29.98,29.86,2,0,10,0.01
2013-8-24,82,73,66,69,62,58,91,71,44,30.22,29.98,5,1,16,0.00
2013-8-25,80,68,62,63,58,-100,98,74,42,30.32,30.22,3,0,15,0.00
2013-8-26,83,68,56,63,58,55,99,76,41,30.25,30.06,1,0,5,0.00
2013-8-27,87,70,60,71,63,59,95,81,54,30.06,29.92,0,0,0,0.00
2013-8-28,84,80,75,75,74,73,94,82,70,29.91,29.83,0,0,0,0.00
2013-8-29,88,80,73,74,72,70,93,79,58,29.94,29.78,3,0,13,0.00
2013-8-30,88,74,65,70,67,64,98,80,48,29.99,29.89,4,0,9,0.00
2013-8-31,88,76,66,73,69,65,99,82,55,29.92,29.81,5,1,11,0.00
2013-9-1,92,78,71,76,70,-100,98,81,54,29.85,29.72,4,1,12,0.88
2013-9-2,88,77,71,76,73,70,99,88,62,29.84,29.74,2,0,7,0.01
2013-9-3,87,76,72,77,72,67,98,89,60,29.87,29.74,2,0,8,0.62
2013-9-4,87,75,67,73,70,66,98,86,61,30.01,29.87,3,0,6,0.52
2013-9-5,88,76,67,71,68,63,99,79,43,30.03,29.96,2,0,7,0.00
2013-9-6,83,72,66,65,62,57,93,73,48,30.10,30.01,4,0,11,0.00
2013-9-7,84,70,60,66,62,59,98,78,47,30.06,29.92,2,0,6,0.00
2013-9-8,88,72,62,66,60,-100,98,73,37,29.92,29.84,5,0,7,0.00
2013-9-9,88,76,65,70,68,64,98,79,51,30.09,29.92,2,0,7,0.00
2013-9-10,91,76,66,73,68,65,99,78,46,30.17,30.09,4,0,7,0.00
2013-9-11,88,76,66,71,68,62,99,79,42,30.15,30.02,5,0,9,0.00
2013-9-12,91,76,68,72,69,66,97,80,48,30.02,29.75,3,0,10,0.10
2013-9-13,85,74,68,70,64,57,99,75,45,29.81,29.69,4,0,11,0.01
2013-9-14,78,68,59,59,53,49,90,61,41,30.06,29.81,6,0,14,0.01
2013-9-15,81,64,56,63,55,-100,97,78,47,30.16,30.06,2,0,11,0.00
2013-9-16,86,74,66,72,65,61,98,76,44,30.11,29.97,4,0,12,0.59
2013-9-17,77,68,60,61,56,52,83,67,43,30.24,30.12,5,1,12,0.03
2013-9-18,60,54,52,53,51,50,93,89,77,30.23,30.12,0,0,5,0.00
2013-9-19,78,64,54,61,56,53,96,78,51,30.12,30.04,3,0,5,0.00
2013-9-24,74,65,59,61,59,58,96,82,57,29.91,29.89,2,0,4,0.00
2013-9-25,73,64,53,62,58,52,99,83,61,29.90,29.80,2,0,6,0.01
2013-9-26,77,66,59,62,58,52,96,76,44,29.96,29.80,4,0,14,0.01
2013-10-1,66,62,56,62,60,55,95,92,86,30.02,30.00,0,0,0,0.01
2013-10-2,85,69,57,64,60,56,99,78,41,30.06,29.98,3,0,10,0.01
2013-10-3,84,70,58,68,63,57,99,80,49,30.07,30.00,3,0,8,0.00
2013-10-4,85,72,60,68,64,59,99,79,47,30.07,29.99,3,0,7,0.00
2013-10-5,89,74,61,70,64,60,100,77,43,30.05,29.97,5,0,8,0.00
2013-10-6,84,72,63,71,68,62,99,87,60,30.01,29.87,5,1,11,0.00
2013-10-7,75,72,63,73,70,62,98,95,90,29.91,29.79,4,1,13,0.41
2013-10-8,63,59,56,62,52,46,97,81,62,30.11,29.90,7,1,17,0.23
2013-10-9,63,59,55,56,54,50,96,83,76,30.09,29.99,5,1,17,0.01
2013-10-10,61,57,54,60,56,52,97,94,91,29.99,29.86,5,1,19,0.00
2013-10-11,69,63,59,63,60,58,97,91,75,29.90,29.83,4,1,11,0.00
2013-10-12,68,65,61,65,62,59,97,91,83,30.01,29.88,1,0,10,0.00
2013-10-13,68,64,62,64,60,-100,99,92,85,30.11,30.00,3,1,10,0.07
2013-10-14,66,63,58,64,61,57,99,93,84,30.15,30.09,3,1,11,0.08
2013-10-15,71,62,54,62,58,53,99,86,68,30.12,29.98,3,0,10,0.01
2013-10-16,70,65,61,63,62,60,97,89,73,30.00,29.90,2,0,4,0.00
2013-10-17,78,66,58,66,62,58,100,87,62,29.91,29.79,3,0,9,0.00
2013-10-18,67,63,59,65,55,47,97,76,54,29.97,29.82,4,0,12,0.00
2013-10-19,68,64,61,65,61,56,96,90,84,29.91,29.76,4,0,6,0.00
2013-10-21,68,58,52,52,50,45,94,76,44,29.98,29.93,2,0,4,0.00
2013-10-22,64,58,51,59,55,50,97,92,79,29.94,29.75,1,0,3,0.00
2013-10-23,68,60,48,59,49,33,99,71,36,29.93,29.62,3,0,14,0.00
2013-10-24,60,48,36,41,36,32,92,67,37,30.10,29.93,2,0,11,0.00
2013-10-25,57,48,37,39,32,27,90,57,32,30.28,30.10,3,0,15,0.00
2013-10-26,59,44,31,40,34,29,96,71,34,30.28,30.01,5,0,10,0.00
2013-10-27,68,52,41,48,41,-100,94,70,39,30.06,29.97,3,0,8,0.00
2013-10-28,64,53,44,56,48,-100,97,88,67,30.19,30.04,2,0,4,0.00
2013-10-29,73,58,49,58,53,48,100,85,54,30.26,30.17,1,0,4,0.00
2013-11-12,62,43,35,40,34,20,96,74,40,30.31,29.98,6,1,22,0.01
2013-11-13,46,35,27,24,19,15,86,55,30,30.44,30.32,5,1,14,0.01
2013-11-14,57,37,24,29,24,21,93,65,24,30.39,30.26,3,0,9,0.01
2013-11-15,63,45,29,50,38,25,91,78,37,30.27,30.12,2,0,6,0.00
2013-11-16,72,57,50,58,52,-100,98,86,57,30.19,30.11,2,0,5,0.01
2013-11-17,72,63,54,66,59,53,99,88,65,30.14,29.85,4,0,11,0.04
2013-11-18,76,66,56,67,54,31,99,69,37,29.87,29.73,4,1,12,0.08